sensor_id;sensor_type;location;lat;lon;timestamp;P1;P4;P2;P0;N10;N4;N25;N1;N05;TS
74330;SPS30;62749;51.982;5.916;2023-03-23T00:00:15;5.69;5.58;5.05;4.16;33.29;33.27;33.13;32.33;26.87;0.67
74330;SPS30;62749;51.982;5.916;2023-03-23T00:02:45;6.09;5.96;5.33;4.29;34.39;34.36;34.20;33.27;27.51;0.70
74330;SPS30;62749;51.982;5.916;2023-03-23T00:05:14;6.86;6.71;5.98;4.81;38.54;38.50;38.32;37.26;30.79;0.69
74330;SPS30;62749;51.982;5.916;2023-03-23T00:07:44;6.31;6.18;5.54;4.49;35.97;35.93;35.77;34.82;28.83;0.69
74330;SPS30;62749;51.982;5.916;2023-03-23T00:10:18;6.45;6.31;5.62;4.51;36.14;36.10;35.93;34.93;28.85;0.68
74330;SPS30;62749;51.982;5.916;2023-03-23T00:12:50;6.41;6.26;5.50;4.32;34.61;34.57;34.39;33.31;27.35;0.72
74330;SPS30;62749;51.982;5.916;2023-03-23T00:15:19;8.46;8.23;7.11;5.41;43.43;43.38;43.11;41.55;33.83;0.73
74330;SPS30;62749;51.982;5.916;2023-03-23T00:17:51;7.30;7.09;6.04;4.48;35.98;35.93;35.68;34.24;27.69;0.75
74330;SPS30;62749;51.982;5.916;2023-03-23T00:20:28;6.58;6.41;5.54;4.22;33.90;33.86;33.64;32.44;26.43;0.72
74330;SPS30;62749;51.982;5.916;2023-03-23T00:23:06;6.32;6.17;5.44;4.29;34.43;34.39;34.22;33.17;27.27;0.69
74330;SPS30;62749;51.982;5.916;2023-03-23T00:25:36;6.53;6.37;5.60;4.38;35.16;35.12;34.93;33.83;27.76;0.69
74330;SPS30;62749;51.982;5.916;2023-03-23T00:28:07;7.02;6.84;5.93;4.54;36.46;36.42;36.20;34.93;28.50;0.71
74330;SPS30;62749;51.982;5.916;2023-03-23T00:30:38;5.78;5.64;4.93;3.84;30.80;30.76;30.59;29.59;24.24;0.69
74330;SPS30;62749;51.982;5.916;2023-03-23T00:33:08;6.14;6.00;5.30;4.19;33.59;33.56;33.39;32.38;26.64;0.71
74330;SPS30;62749;51.982;5.916;2023-03-23T00:35:38;6.38;6.23;5.47;4.29;34.38;34.34;34.16;33.08;27.15;0.73
74330;SPS30;62749;51.982;5.916;2023-03-23T00:38:10;6.22;6.09;5.42;4.33;34.73;34.70;34.53;33.55;27.69;0.72
74330;SPS30;62749;51.982;5.916;2023-03-23T00:40:40;6.52;6.39;5.72;4.62;37.01;36.98;36.81;35.82;29.64;0.71
74330;SPS30;62749;51.982;5.916;2023-03-23T00:43:12;6.26;6.12;5.41;4.29;34.39;34.36;34.18;33.17;27.31;0.70
74330;SPS30;62749;51.982;5.916;2023-03-23T00:45:42;6.79;6.62;5.77;4.47;35.84;35.80;35.59;34.40;28.14;0.71
74330;SPS30;62749;51.982;5.916;2023-03-23T00:48:15;6.93;6.73;5.73;4.26;34.21;34.16;33.92;32.56;26.33;0.73
74330;SPS30;62749;51.982;5.916;2023-03-23T00:50:58;6.94;6.74;5.78;4.35;34.90;34.85;34.62;33.30;27.02;0.71
74330;SPS30;62749;51.982;5.916;2023-03-23T00:53:32;6.19;6.03;5.26;4.07;32.64;32.60;32.41;31.32;25.62;0.69
74330;SPS30;62749;51.982;5.916;2023-03-23T00:56:02;7.26;7.08;6.17;4.77;38.29;38.24;38.02;36.74;30.05;0.71
74330;SPS30;62749;51.982;5.916;2023-03-23T00:58:34;7.05;6.87;5.93;4.52;36.26;36.22;35.99;34.70;28.26;0.72
74330;SPS30;62749;51.982;5.916;2023-03-23T01:01:04;6.45;6.29;5.47;4.21;33.75;33.71;33.51;32.36;26.43;0.72
74330;SPS30;62749;51.982;5.916;2023-03-23T01:03:33;6.08;5.95;5.32;4.29;34.35;34.32;34.16;33.23;27.47;0.70
74330;SPS30;62749;51.982;5.916;2023-03-23T01:06:04;6.94;6.78;6.00;4.75;38.07;38.03;37.84;36.71;30.21;0.70
74330;SPS30;62749;51.982;5.916;2023-03-23T01:08:39;6.00;5.88;5.26;4.26;34.15;34.12;33.96;33.06;27.37;0.67
74330;SPS30;62749;51.982;5.916;2023-03-23T01:11:12;6.13;6.01;5.40;4.38;35.13;35.09;34.94;34.03;28.20;0.66
74330;SPS30;62749;51.982;5.916;2023-03-23T01:13:46;5.97;5.86;5.31;4.37;34.98;34.95;34.82;33.98;28.24;0.66
74330;SPS30;62749;51.982;5.916;2023-03-23T01:16:15;6.70;6.55;5.84;4.70;37.63;37.60;37.42;36.39;30.06;0.66
74330;SPS30;62749;51.982;5.916;2023-03-23T01:18:44;6.79;6.63;5.84;4.60;36.89;36.85;36.66;35.53;29.20;0.69
74330;SPS30;62749;51.982;5.916;2023-03-23T01:21:15;6.24;6.10;5.41;4.30;34.47;34.43;34.26;33.26;27.40;0.68
74330;SPS30;62749;51.982;5.916;2023-03-23T01:23:47;6.05;5.91;5.20;4.09;32.78;32.74;32.57;31.56;25.93;0.70
74330;SPS30;62749;51.982;5.916;2023-03-23T01:26:17;6.47;6.33;5.65;4.55;36.47;36.43;36.26;35.27;29.15;0.68
74330;SPS30;62749;51.982;5.916;2023-03-23T01:28:51;6.48;6.33;5.60;4.43;35.52;35.48;35.30;34.24;28.18;0.68
74330;SPS30;62749;51.982;5.916;2023-03-23T01:31:21;6.29;6.15;5.47;4.38;35.12;35.09;34.92;33.93;28.01;0.67
74330;SPS30;62749;51.982;5.916;2023-03-23T01:33:53;6.00;5.87;5.19;4.12;32.99;32.95;32.79;31.81;26.20;0.68
74330;SPS30;62749;51.982;5.916;2023-03-23T01:36:24;6.78;6.61;5.79;4.53;36.29;36.25;36.05;34.89;28.61;0.70
74330;SPS30;62749;51.982;5.916;2023-03-23T01:38:55;6.24;6.08;5.28;4.06;32.60;32.56;32.36;31.25;25.52;0.72
74330;SPS30;62749;51.982;5.916;2023-03-23T01:41:24;6.84;6.67;5.83;4.54;36.38;36.33;36.13;34.95;28.63;0.72
74330;SPS30;62749;51.982;5.916;2023-03-23T01:44:00;6.88;6.71;5.86;4.54;36.39;36.35;36.14;34.93;28.58;0.71
74330;SPS30;62749;51.982;5.916;2023-03-23T01:46:31;6.64;6.50;5.76;4.60;36.84;36.81;36.63;35.57;29.33;0.64
74330;SPS30;62749;51.982;5.916;2023-03-23T01:49:03;6.04;5.92;5.32;4.32;34.65;34.62;34.47;33.57;27.82;0.65
74330;SPS30;62749;51.982;5.916;2023-03-23T01:51:40;5.48;5.37;4.84;3.95;31.64;31.61;31.48;30.68;25.45;0.65
74330;SPS30;62749;51.982;5.916;2023-03-23T01:54:15;6.72;6.57;5.85;4.68;37.53;37.50;37.32;36.27;29.94;0.67
74330;SPS30;62749;51.982;5.916;2023-03-23T01:56:50;7.15;7.00;6.27;5.07;40.59;40.55;40.37;39.29;32.51;0.66
74330;SPS30;62749;51.982;5.916;2023-03-23T01:59:27;6.20;6.07;5.45;4.42;35.42;35.39;35.24;34.31;28.42;0.67
74330;SPS30;62749;51.982;5.916;2023-03-23T02:01:59;6.20;6.06;5.35;4.24;33.98;33.95;33.77;32.76;26.96;0.69
74330;SPS30;62749;51.982;5.916;2023-03-23T02:04:29;7.13;6.97;6.16;4.87;39.03;38.99;38.79;37.62;30.95;0.69
74330;SPS30;62749;51.982;5.916;2023-03-23T02:07:02;6.44;6.29;5.57;4.42;35.46;35.43;35.25;34.21;28.18;0.67
74330;SPS30;62749;51.982;5.916;2023-03-23T02:09:32;5.89;5.76;5.12;4.10;32.87;32.84;32.68;31.76;26.22;0.67
74330;SPS30;62749;51.982;5.916;2023-03-23T02:12:02;6.40;6.27;5.62;4.55;36.48;36.44;36.28;35.32;29.24;0.65
74330;SPS30;62749;51.982;5.916;2023-03-23T02:14:34;6.24;6.12;5.53;4.54;36.37;36.34;36.19;35.31;29.33;0.67
74330;SPS30;62749;51.982;5.916;2023-03-23T02:17:05;6.55;6.42;5.77;4.69;37.61;37.57;37.41;36.45;30.21;0.67
74330;SPS30;62749;51.982;5.916;2023-03-23T02:19:41;6.49;6.37;5.79;4.80;38.43;38.39;38.25;37.37;31.11;0.64
74330;SPS30;62749;51.982;5.916;2023-03-23T02:22:52;6.56;6.43;5.77;4.68;37.49;37.46;37.29;36.31;30.08;0.67
74330;SPS30;62749;51.982;5.916;2023-03-23T02:34:36;7.05;6.92;6.26;5.14;41.20;41.17;41.00;40.00;33.24;0.66
74330;SPS30;62749;51.982;5.916;2023-03-23T02:37:11;6.49;6.38;5.81;4.84;38.75;38.72;38.58;37.71;31.43;0.65
74330;SPS30;62749;51.982;5.916;2023-03-23T02:39:48;6.30;6.19;5.64;4.70;37.63;37.60;37.46;36.62;30.53;0.66
74330;SPS30;62749;51.982;5.916;2023-03-23T02:42:24;6.32;6.20;5.56;4.51;36.15;36.12;35.96;35.02;29.01;0.69
74330;SPS30;62749;51.982;5.916;2023-03-23T02:45:00;7.81;7.63;6.76;5.37;43.02;42.97;42.76;41.50;34.18;0.71
74330;SPS30;62749;51.982;5.916;2023-03-23T02:47:34;7.73;7.51;6.43;4.81;38.64;38.58;38.32;36.83;29.85;0.74
74330;SPS30;62749;51.982;5.916;2023-03-23T02:50:10;7.97;7.75;6.65;5.01;40.20;40.15;39.88;38.37;31.15;0.73
74330;SPS30;62749;51.982;5.916;2023-03-23T02:52:45;6.94;6.77;5.94;4.64;37.23;37.18;36.98;35.80;29.36;0.69
74330;SPS30;62749;51.982;5.916;2023-03-23T02:55:18;7.62;7.43;6.52;5.09;40.83;40.78;40.56;39.26;32.20;0.68
74330;SPS30;62749;51.982;5.916;2023-03-23T02:57:52;6.95;6.80;6.06;4.86;38.98;38.95;38.76;37.68;31.13;0.66
74330;SPS30;62749;51.982;5.916;2023-03-23T03:00:22;6.94;6.79;6.06;4.88;39.10;39.07;38.89;37.82;31.26;0.68
74330;SPS30;62749;51.982;5.916;2023-03-23T03:02:52;7.01;6.84;6.00;4.69;37.61;37.56;37.36;36.16;29.66;0.72
74330;SPS30;62749;51.982;5.916;2023-03-23T03:05:30;7.59;7.41;6.52;5.13;41.12;41.07;40.86;39.59;32.53;0.71
74330;SPS30;62749;51.982;5.916;2023-03-23T03:08:10;6.65;6.50;5.78;4.61;36.95;36.91;36.73;35.68;29.42;0.69
74330;SPS30;62749;51.982;5.916;2023-03-23T03:10:52;6.91;6.75;5.94;4.68;37.56;37.51;37.32;36.17;29.73;0.70
74330;SPS30;62749;51.982;5.916;2023-03-23T03:13:30;7.31;7.16;6.38;5.12;41.05;41.01;40.82;39.68;32.78;0.66
74330;SPS30;62749;51.982;5.916;2023-03-23T03:16:10;7.81;7.65;6.84;5.52;44.24;44.20;44.00;42.81;35.41;0.68
74330;SPS30;62749;51.982;5.916;2023-03-23T03:18:54;7.05;6.91;6.21;5.05;40.48;40.44;40.27;39.23;32.51;0.66
74330;SPS30;62749;51.982;5.916;2023-03-23T03:21:34;6.36;6.24;5.65;4.66;37.32;37.29;37.14;36.25;30.14;0.65
74330;SPS30;62749;51.982;5.916;2023-03-23T03:24:08;6.49;6.36;5.73;4.67;37.42;37.39;37.23;36.29;30.09;0.67
74330;SPS30;62749;51.982;5.916;2023-03-23T03:26:42;5.84;5.76;5.33;4.53;36.27;36.25;36.14;35.44;29.69;0.64
74330;SPS30;62749;51.982;5.916;2023-03-23T03:29:16;6.28;6.17;5.65;4.74;37.93;37.90;37.77;36.96;30.85;0.63
74330;SPS30;62749;51.982;5.916;2023-03-23T03:31:50;6.26;6.14;5.56;4.57;36.59;36.56;36.41;35.53;29.52;0.65
74330;SPS30;62749;51.982;5.916;2023-03-23T03:34:22;6.78;6.65;5.98;4.88;39.10;39.07;38.90;37.91;31.44;0.66
74330;SPS30;62749;51.982;5.916;2023-03-23T03:36:54;6.73;6.59;5.88;4.74;37.98;37.95;37.77;36.74;30.37;0.67
74330;SPS30;62749;51.982;5.916;2023-03-23T03:39:31;6.32;6.20;5.59;4.57;36.58;36.55;36.40;35.48;29.44;0.65
74330;SPS30;62749;51.982;5.916;2023-03-23T03:42:04;6.19;6.07;5.46;4.45;35.65;35.61;35.46;34.55;28.65;0.67
74330;SPS30;62749;51.982;5.916;2023-03-23T03:44:35;7.23;7.09;6.41;5.27;42.20;42.17;42.00;40.98;34.04;0.67
74330;SPS30;62749;51.982;5.916;2023-03-23T03:47:04;6.47;6.35;5.76;4.74;38.00;37.97;37.82;36.91;30.69;0.69
74330;SPS30;62749;51.982;5.916;2023-03-23T03:49:33;6.78;6.65;5.97;4.84;38.81;38.77;38.60;37.60;31.14;0.69
74330;SPS30;62749;51.982;5.916;2023-03-23T03:52:06;6.68;6.53;5.78;4.59;36.78;36.74;36.55;35.47;29.21;0.69
74330;SPS30;62749;51.982;5.916;2023-03-23T03:54:36;7.80;7.61;6.70;5.27;42.28;42.23;42.01;40.71;33.45;0.68
74330;SPS30;62749;51.982;5.916;2023-03-23T03:57:06;7.36;7.18;6.25;4.83;38.78;38.74;38.51;37.21;30.44;0.70
74330;SPS30;62749;51.982;5.916;2023-03-23T03:59:36;7.02;6.85;6.01;4.70;37.72;37.68;37.47;36.28;29.77;0.69
74330;SPS30;62749;51.982;5.916;2023-03-23T04:02:05;6.62;6.48;5.75;4.58;36.70;36.66;36.48;35.43;29.21;0.69
74330;SPS30;62749;51.982;5.916;2023-03-23T04:04:34;7.41;7.25;6.43;5.12;41.07;41.03;40.83;39.65;32.68;0.70
74330;SPS30;62749;51.982;5.916;2023-03-23T04:07:06;6.52;6.38;5.66;4.52;36.27;36.23;36.05;35.02;28.89;0.70
74330;SPS30;62749;51.982;5.916;2023-03-23T04:09:37;6.43;6.31;5.69;4.66;37.30;37.26;37.11;36.18;30.03;0.67
74330;SPS30;62749;51.982;5.916;2023-03-23T04:12:06;6.49;6.36;5.71;4.65;37.26;37.22;37.06;36.11;29.93;0.66
74330;SPS30;62749;51.982;5.916;2023-03-23T04:14:36;7.06;6.91;6.20;5.04;40.36;40.32;40.14;39.09;32.38;0.65
74330;SPS30;62749;51.982;5.916;2023-03-23T04:17:06;7.05;6.92;6.23;5.09;40.79;40.75;40.58;39.56;32.82;0.65
74330;SPS30;62749;51.982;5.916;2023-03-23T04:19:36;6.40;6.26;5.56;4.45;35.64;35.60;35.43;34.42;28.40;0.67
74330;SPS30;62749;51.982;5.916;2023-03-23T04:22:09;6.48;6.33;5.60;4.45;35.67;35.63;35.45;34.41;28.34;0.67
74330;SPS30;62749;51.982;5.916;2023-03-23T04:24:38;6.73;6.60;5.94;4.86;38.91;38.87;38.71;37.73;31.31;0.65
74330;SPS30;62749;51.982;5.916;2023-03-23T04:27:08;6.07;5.97;5.47;4.59;36.73;36.70;36.57;35.79;29.89;0.62
74330;SPS30;62749;51.982;5.916;2023-03-23T04:29:39;5.69;5.60;5.12;4.29;34.36;34.34;34.21;33.48;27.94;0.65
74330;SPS30;62749;51.982;5.916;2023-03-23T04:32:09;6.19;6.07;5.44;4.40;35.29;35.26;35.10;34.18;28.29;0.67
74330;SPS30;62749;51.982;5.916;2023-03-23T04:34:38;7.38;7.22;6.44;5.18;41.51;41.46;41.27;40.13;33.16;0.68
74330;SPS30;62749;51.982;5.916;2023-03-23T04:37:11;6.28;6.15;5.49;4.41;35.36;35.32;35.16;34.19;28.25;0.69
74330;SPS30;62749;51.982;5.916;2023-03-23T04:39:41;7.37;7.18;6.24;4.80;38.49;38.44;38.21;36.89;30.13;0.71
74330;SPS30;62749;51.982;5.916;2023-03-23T04:42:11;6.77;6.59;5.67;4.28;34.34;34.29;34.07;32.80;26.65;0.73
74330;SPS30;62749;51.982;5.916;2023-03-23T04:44:41;8.50;8.25;6.97;5.10;40.98;40.92;40.61;38.88;31.31;0.73
74330;SPS30;62749;51.982;5.916;2023-03-23T04:47:11;7.53;7.30;6.17;4.51;36.23;36.18;35.91;34.37;27.67;0.73
74330;SPS30;62749;51.982;5.916;2023-03-23T04:49:43;6.83;6.65;5.79;4.47;35.89;35.85;35.64;34.43;28.15;0.70
74330;SPS30;62749;51.982;5.916;2023-03-23T04:52:16;6.40;6.22;5.34;4.02;32.27;32.22;32.01;30.80;25.00;0.70
74330;SPS30;62749;51.982;5.916;2023-03-23T04:54:46;7.32;7.13;6.14;4.65;37.30;37.25;37.01;35.65;28.99;0.69
74330;SPS30;62749;51.982;5.916;2023-03-23T04:57:16;5.62;5.52;5.00;4.12;32.97;32.94;32.81;32.02;26.62;0.66
74330;SPS30;62749;51.982;5.916;2023-03-23T04:59:46;4.97;4.88;4.45;3.70;29.60;29.57;29.46;28.79;23.99;0.67
74330;SPS30;62749;51.982;5.916;2023-03-23T05:02:15;5.31;5.21;4.71;3.87;30.97;30.95;30.82;30.07;24.98;0.67
74330;SPS30;62749;51.982;5.916;2023-03-23T05:04:45;6.56;6.41;5.63;4.41;35.36;35.32;35.13;34.02;27.92;0.69
74330;SPS30;62749;51.982;5.916;2023-03-23T05:07:17;5.91;5.77;5.07;3.98;31.87;31.84;31.67;30.67;25.17;0.69
74330;SPS30;62749;51.982;5.916;2023-03-23T05:09:47;5.76;5.61;4.90;3.80;30.46;30.43;30.25;29.25;23.94;0.69
74330;SPS30;62749;51.982;5.916;2023-03-23T05:12:17;5.73;5.58;4.86;3.75;30.08;30.04;29.87;28.85;23.59;0.70
74330;SPS30;62749;51.982;5.916;2023-03-23T05:14:47;6.75;6.56;5.60;4.18;33.59;33.54;33.31;32.01;25.92;0.74
74330;SPS30;62749;51.982;5.916;2023-03-23T05:17:16;5.36;5.21;4.45;3.33;26.72;26.69;26.51;25.47;20.64;0.73
74330;SPS30;62749;51.982;5.916;2023-03-23T05:19:45;6.55;6.37;5.48;4.15;33.27;33.23;33.01;31.78;25.83;0.70
74330;SPS30;62749;51.982;5.916;2023-03-23T05:22:17;6.46;6.26;5.25;3.79;30.44;30.39;30.15;28.80;23.09;0.74
74330;SPS30;62749;51.982;5.916;2023-03-23T05:24:47;7.26;7.05;5.98;4.41;35.40;35.35;35.09;33.64;27.14;0.71
74330;SPS30;62749;51.982;5.916;2023-03-23T05:27:17;5.31;5.16;4.43;3.33;26.74;26.70;26.52;25.51;20.70;0.71
74330;SPS30;62749;51.982;5.916;2023-03-23T05:29:47;5.51;5.35;4.56;3.38;27.14;27.10;26.91;25.82;20.87;0.72
74330;SPS30;62749;51.982;5.916;2023-03-23T05:32:17;5.27;5.12;4.33;3.19;25.58;25.55;25.36;24.30;19.59;0.73
74330;SPS30;62749;51.982;5.916;2023-03-23T05:34:47;7.49;7.23;5.94;4.11;33.09;33.03;32.72;31.01;24.54;0.77
74330;SPS30;62749;51.982;5.916;2023-03-23T05:37:33;7.16;6.89;5.57;3.72;29.95;29.89;29.58;27.84;21.77;0.78
74330;SPS30;62749;51.982;5.916;2023-03-23T05:40:03;6.40;6.18;5.06;3.48;28.02;27.97;27.70;26.23;20.71;0.76
74330;SPS30;62749;51.982;5.916;2023-03-23T05:42:34;5.68;5.49;4.52;3.14;25.26;25.22;24.99;23.70;18.78;0.80
74330;SPS30;62749;51.982;5.916;2023-03-23T05:45:06;6.97;6.71;5.38;3.53;28.44;28.38;28.07;26.34;20.47;0.84
74330;SPS30;62749;51.982;5.916;2023-03-23T05:47:38;5.92;5.71;4.66;3.17;25.50;25.46;25.21;23.82;18.74;0.80
74330;SPS30;62749;51.982;5.916;2023-03-23T05:50:09;6.29;6.06;4.95;3.37;27.15;27.10;26.83;25.36;19.97;0.81
74330;SPS30;62749;51.982;5.916;2023-03-23T05:52:43;5.31;5.13;4.28;3.04;24.44;24.40;24.19;23.04;18.39;0.78
74330;SPS30;62749;51.982;5.916;2023-03-23T05:55:12;4.98;4.83;4.10;3.01;24.20;24.16;23.99;22.99;18.53;0.77
74330;SPS30;62749;51.982;5.916;2023-03-23T05:57:41;5.13;4.97;4.13;2.92;23.51;23.47;23.27;22.15;17.65;0.81
74330;SPS30;62749;51.982;5.916;2023-03-23T06:00:11;5.29;5.11;4.20;2.91;23.40;23.36;23.15;21.94;17.37;0.81
74330;SPS30;62749;51.982;5.916;2023-03-23T06:02:46;5.59;5.40;4.40;3.00;24.11;24.07;23.83;22.52;17.72;0.80
74330;SPS30;62749;51.982;5.916;2023-03-23T06:05:17;6.12;5.89;4.75;3.16;25.42;25.37;25.10;23.61;18.42;0.82
74330;SPS30;62749;51.982;5.916;2023-03-23T06:07:49;6.39;6.16;5.02;3.42;27.55;27.50;27.23;25.73;20.26;0.80
74330;SPS30;62749;51.982;5.916;2023-03-23T06:10:18;5.15;4.96;3.99;2.64;21.26;21.21;20.99;19.72;15.37;0.82
74330;SPS30;62749;51.982;5.916;2023-03-23T06:12:49;5.36;5.16;4.17;2.78;22.39;22.35;22.11;20.81;16.27;0.81
74330;SPS30;62749;51.982;5.916;2023-03-23T06:15:19;5.59;5.40;4.41;3.02;24.29;24.24;24.01;22.71;17.90;0.78
74330;SPS30;62749;51.982;5.916;2023-03-23T06:17:48;5.43;5.24;4.27;2.90;23.36;23.32;23.09;21.81;17.16;0.79
74330;SPS30;62749;51.982;5.916;2023-03-23T06:20:22;5.54;5.35;4.41;3.07;24.68;24.64;24.41;23.16;18.36;0.78
74330;SPS30;62749;51.982;5.916;2023-03-23T06:22:54;5.29;5.13;4.30;3.09;24.87;24.83;24.63;23.51;18.84;0.75
74330;SPS30;62749;51.982;5.916;2023-03-23T06:25:24;9.93;9.73;8.70;7.02;56.28;56.23;55.98;54.47;45.05;0.64
74330;SPS30;62749;51.982;5.916;2023-03-23T06:27:53;3.55;3.47;3.08;2.46;19.68;19.66;19.56;19.00;15.66;0.59
74330;SPS30;62749;51.982;5.916;2023-03-23T06:30:23;4.34;4.22;3.63;2.73;21.93;21.91;21.76;20.94;17.00;0.65
74330;SPS30;62749;51.982;5.916;2023-03-23T06:32:53;5.00;4.84;4.07;2.95;23.72;23.69;23.50;22.47;18.04;0.73
74330;SPS30;62749;51.982;5.916;2023-03-23T06:35:23;6.01;5.81;4.82;3.41;27.38;27.33;27.10;25.78;20.53;0.76
74330;SPS30;62749;51.982;5.916;2023-03-23T06:37:58;5.23;5.04;4.08;2.73;22.01;21.97;21.74;20.48;16.03;0.80
74330;SPS30;62749;51.982;5.916;2023-03-23T06:40:28;4.68;4.53;3.73;2.60;20.90;20.87;20.68;19.62;15.56;0.77
74330;SPS30;62749;51.982;5.916;2023-03-23T06:42:58;5.24;5.05;4.09;2.74;22.09;22.05;21.82;20.56;16.10;0.81
74330;SPS30;62749;51.982;5.916;2023-03-23T06:45:27;6.30;6.06;4.86;3.20;25.78;25.72;25.44;23.88;18.58;0.81
74330;SPS30;62749;51.982;5.916;2023-03-23T06:47:57;5.12;4.91;3.88;2.47;19.89;19.84;19.60;18.27;14.03;0.84
74330;SPS30;62749;51.982;5.916;2023-03-23T06:50:26;5.76;5.52;4.34;2.73;22.03;21.98;21.70;20.18;15.44;0.82
74330;SPS30;62749;51.982;5.916;2023-03-23T06:52:58;6.20;5.96;4.78;3.15;25.34;25.29;25.01;23.48;18.26;0.81
74330;SPS30;62749;51.982;5.916;2023-03-23T06:58:07;5.92;5.69;4.54;2.95;23.74;23.69;23.42;21.92;16.97;0.82
74330;SPS30;62749;51.982;5.916;2023-03-23T07:00:37;7.04;6.75;5.30;3.32;26.81;26.75;26.41;24.55;18.75;0.85
74330;SPS30;62749;51.982;5.916;2023-03-23T07:03:08;7.43;7.11;5.53;3.37;27.23;27.16;26.79;24.75;18.70;0.86
74330;SPS30;62749;51.982;5.916;2023-03-23T07:05:38;7.09;6.78;5.25;3.18;25.68;25.61;25.25;23.30;17.55;0.86
74330;SPS30;62749;51.982;5.916;2023-03-23T07:08:10;6.01;5.78;4.59;2.96;23.86;23.81;23.53;22.00;16.98;0.82
74330;SPS30;62749;51.982;5.916;2023-03-23T07:10:39;5.49;5.29;4.31;2.92;23.48;23.44;23.20;21.91;17.21;0.79
74330;SPS30;62749;51.982;5.916;2023-03-23T07:13:08;5.87;5.65;4.54;3.01;24.24;24.19;23.93;22.49;17.53;0.81
74330;SPS30;62749;51.982;5.916;2023-03-23T07:15:38;6.49;6.25;5.08;3.44;27.69;27.63;27.36;25.82;20.27;0.79
74330;SPS30;62749;51.982;5.916;2023-03-23T07:18:07;6.90;6.66;5.42;3.68;29.64;29.58;29.29;27.66;21.75;0.79
74330;SPS30;62749;51.982;5.916;2023-03-23T07:20:37;5.40;5.20;4.24;2.87;23.14;23.09;22.86;21.59;16.97;0.79
74330;SPS30;62749;51.982;5.916;2023-03-23T07:23:07;5.81;5.58;4.45;2.88;23.23;23.18;22.91;21.44;16.59;0.84
74330;SPS30;62749;51.982;5.916;2023-03-23T07:25:39;6.27;6.02;4.78;3.07;24.78;24.73;24.44;22.83;17.61;0.84
74330;SPS30;62749;51.982;5.916;2023-03-23T07:28:08;5.80;5.58;4.49;2.97;23.94;23.89;23.63;22.21;17.31;0.82
74330;SPS30;62749;51.982;5.916;2023-03-23T07:30:38;5.53;5.32;4.28;2.84;22.88;22.83;22.58;21.23;16.56;0.82
74330;SPS30;62749;51.982;5.916;2023-03-23T07:33:07;6.08;5.86;4.72;3.13;25.18;25.13;24.86;23.37;18.22;0.81
74330;SPS30;62749;51.982;5.916;2023-03-23T07:35:38;6.72;6.48;5.29;3.60;29.01;28.96;28.67;27.10;21.34;0.78
74330;SPS30;62749;51.982;5.916;2023-03-23T07:38:10;5.59;5.40;4.45;3.11;24.98;24.93;24.71;23.45;18.60;0.79
74330;SPS30;62749;51.982;5.916;2023-03-23T07:40:40;5.09;4.91;3.97;2.66;21.41;21.37;21.15;19.92;15.59;0.82
74330;SPS30;62749;51.982;5.916;2023-03-23T07:43:10;5.65;5.43;4.31;2.78;22.40;22.35;22.09;20.65;15.93;0.84
74330;SPS30;62749;51.982;5.916;2023-03-23T07:45:39;6.68;6.40;4.98;3.05;24.59;24.53;24.19;22.37;16.93;0.89
74330;SPS30;62749;51.982;5.916;2023-03-23T07:48:09;8.02;7.66;5.88;3.47;28.07;27.99;27.57;25.29;18.85;0.90
74330;SPS30;62749;51.982;5.916;2023-03-23T07:50:38;12.83;12.29;9.57;5.88;47.45;47.33;46.69;43.21;32.73;0.81
74330;SPS30;62749;51.982;5.916;2023-03-23T07:53:11;6.30;6.02;4.64;2.78;22.44;22.38;22.06;20.30;15.21;0.87
74330;SPS30;62749;51.982;5.916;2023-03-23T07:55:40;7.01;6.70;5.13;3.02;24.45;24.38;24.01;22.02;16.39;0.87
74330;SPS30;62749;51.982;5.916;2023-03-23T07:58:10;6.66;6.37;4.92;2.95;23.84;23.77;23.43;21.57;16.19;0.88
74330;SPS30;62749;51.982;5.916;2023-03-23T08:00:45;6.69;6.40;4.93;2.94;23.76;23.70;23.35;21.48;16.08;0.88
74330;SPS30;62749;51.982;5.916;2023-03-23T08:03:15;6.29;6.01;4.63;2.77;22.41;22.35;22.03;20.27;15.20;0.87
74330;SPS30;62749;51.982;5.916;2023-03-23T08:05:44;7.43;7.09;5.43;3.20;25.83;25.76;25.37;23.25;17.30;0.88
74330;SPS30;62749;51.982;5.916;2023-03-23T08:08:16;6.58;6.31;4.96;3.12;25.17;25.11;24.80;23.06;17.63;0.83
74330;SPS30;62749;51.982;5.916;2023-03-23T08:10:46;5.89;5.66;4.50;2.89;23.31;23.25;22.98;21.47;16.56;0.84
74330;SPS30;62749;51.982;5.916;2023-03-23T08:13:15;7.01;6.73;5.32;3.39;27.30;27.24;26.90;25.08;19.27;0.86
74330;SPS30;62749;51.982;5.916;2023-03-23T08:15:45;7.64;7.31;5.69;3.49;28.14;28.07;27.69;25.61;19.38;0.87
74330;SPS30;62749;51.982;5.916;2023-03-23T08:18:16;6.79;6.51;5.13;3.23;26.09;26.03;25.70;23.92;18.31;0.83
74330;SPS30;62749;51.982;5.916;2023-03-23T08:20:45;7.76;7.46;5.94;3.84;30.93;30.86;30.50;28.53;22.05;0.80
74330;SPS30;62749;51.982;5.916;2023-03-23T08:23:17;6.30;6.06;4.88;3.24;26.08;26.03;25.75;24.21;18.88;0.79
74330;SPS30;62749;51.982;5.916;2023-03-23T08:25:47;6.55;6.30;5.05;3.31;26.65;26.59;26.30;24.66;19.15;0.81
74330;SPS30;62749;51.982;5.916;2023-03-23T08:28:17;6.08;5.85;4.66;3.02;24.35;24.29;24.01;22.47;17.38;0.82
74330;SPS30;62749;51.982;5.916;2023-03-23T08:30:46;6.53;6.28;5.01;3.26;26.26;26.21;25.91;24.26;18.79;0.83
74330;SPS30;62749;51.982;5.916;2023-03-23T08:33:16;6.57;6.31;5.03;3.26;26.29;26.23;25.93;24.27;18.77;0.83
74330;SPS30;62749;51.982;5.916;2023-03-23T08:35:53;6.61;6.37;5.18;3.50;28.20;28.14;27.86;26.30;20.65;0.81
74330;SPS30;62749;51.982;5.916;2023-03-23T08:38:26;5.63;5.45;4.51;3.16;25.44;25.40;25.18;23.93;19.02;0.76
74330;SPS30;62749;51.982;5.916;2023-03-23T08:40:57;5.90;5.70;4.73;3.33;26.77;26.73;26.49;25.19;20.05;0.76
74330;SPS30;62749;51.982;5.916;2023-03-23T08:43:28;5.55;5.37;4.47;3.18;25.57;25.52;25.31;24.11;19.24;0.75
74330;SPS30;62749;51.982;5.916;2023-03-23T08:45:58;5.87;5.68;4.71;3.33;26.78;26.74;26.51;25.22;20.09;0.75
74330;SPS30;62749;51.982;5.916;2023-03-23T08:48:32;5.55;5.36;4.41;3.06;24.61;24.57;24.34;23.08;18.28;0.77
74330;SPS30;62749;51.982;5.916;2023-03-23T08:51:02;6.34;6.12;5.05;3.53;28.40;28.36;28.10;26.68;21.18;0.79
74330;SPS30;62749;51.982;5.916;2023-03-23T08:53:35;5.82;5.61;4.58;3.13;25.17;25.12;24.88;23.52;18.53;0.80
74330;SPS30;62749;51.982;5.916;2023-03-23T08:56:05;6.03;5.80;4.65;3.05;24.56;24.50;24.23;22.73;17.66;0.80
74330;SPS30;62749;51.982;5.916;2023-03-23T08:58:36;6.04;5.79;4.56;2.87;23.14;23.08;22.79;21.20;16.22;0.82
74330;SPS30;62749;51.982;5.916;2023-03-23T09:01:07;5.95;5.72;4.54;2.93;23.58;23.53;23.26;21.73;16.77;0.81
74330;SPS30;62749;51.982;5.916;2023-03-23T09:03:37;6.28;6.02;4.73;2.96;23.90;23.85;23.54;21.88;16.71;0.83
74330;SPS30;62749;51.982;5.916;2023-03-23T09:06:08;7.13;6.83;5.35;3.33;26.88;26.81;26.46;24.56;18.71;0.83
74330;SPS30;62749;51.982;5.916;2023-03-23T09:08:41;5.34;5.13;4.08;2.62;21.16;21.11;20.86;19.50;15.04;0.81
74330;SPS30;62749;51.982;5.916;2023-03-23T09:11:11;5.11;4.91;3.92;2.54;20.49;20.45;20.21;18.92;14.64;0.80
74330;SPS30;62749;51.982;5.916;2023-03-23T09:13:40;5.36;5.15;4.05;2.54;20.51;20.46;20.20;18.78;14.36;0.84
74330;SPS30;62749;51.982;5.916;2023-03-23T09:16:10;6.57;6.30;4.99;3.19;25.71;25.65;25.34;23.64;18.19;0.81
74330;SPS30;62749;51.982;5.916;2023-03-23T09:18:39;5.90;5.66;4.43;2.76;22.25;22.20;21.91;20.33;15.49;0.85
74330;SPS30;62749;51.982;5.916;2023-03-23T09:21:10;5.44;5.20;4.03;2.44;19.71;19.66;19.38;17.88;13.47;0.85
74330;SPS30;62749;51.982;5.916;2023-03-23T09:23:42;6.74;6.45;5.00;3.03;24.50;24.43;24.09;22.24;16.77;0.83
74330;SPS30;62749;51.982;5.916;2023-03-23T09:26:12;5.46;5.22;4.06;2.47;19.97;19.92;19.65;18.15;13.71;0.83
74330;SPS30;62749;51.982;5.916;2023-03-23T09:28:42;5.34;5.10;3.92;2.33;18.85;18.80;18.52;17.02;12.72;0.85
74330;SPS30;62749;51.982;5.916;2023-03-23T09:31:12;5.48;5.24;4.03;2.41;19.45;19.40;19.12;17.58;13.16;0.85
74330;SPS30;62749;51.982;5.916;2023-03-23T09:33:42;6.00;5.73;4.35;2.50;20.24;20.18;19.86;18.11;13.34;0.88
74330;SPS30;62749;51.982;5.916;2023-03-23T09:36:12;5.27;5.03;3.80;2.17;17.56;17.51;17.22;15.67;11.50;0.88
74330;SPS30;62749;51.982;5.916;2023-03-23T09:38:45;6.95;6.64;5.08;2.99;24.14;24.07;23.70;21.72;16.15;0.85